createdAt,value
2018-10-06T00:00:52.561Z,22.67
2018-10-06T00:02:02.028Z,22.64
2018-10-06T00:03:11.451Z,22.54
2018-10-06T00:04:20.607Z,22.65
2018-10-06T00:05:30.042Z,22.6
2018-10-06T00:06:39.218Z,22.7
2018-10-06T00:07:48.419Z,22.58
2018-10-06T00:08:57.865Z,22.54
2018-10-06T00:10:06.768Z,22.64
2018-10-06T00:11:16.183Z,22.64
2018-10-06T00:12:25.605Z,22.64
2018-10-06T00:13:34.534Z,22.67
2018-10-06T00:14:44.278Z,22.58
2018-10-06T00:15:53.760Z,22.57
2018-10-06T00:17:03.189Z,22.58
2018-10-06T00:18:12.953Z,22.61
2018-10-06T00:19:22.217Z,22.57
2018-10-06T00:20:31.651Z,22.65
2018-10-06T00:21:41.082Z,22.6
2018-10-06T00:22:50.262Z,22.62
2018-10-06T00:23:59.987Z,22.55
2018-10-06T00:25:09.415Z,22.57
2018-10-06T00:26:18.844Z,22.64
2018-10-06T00:27:28.014Z,22.67
2018-10-06T00:28:37.724Z,22.62
2018-10-06T00:29:47.149Z,22.61
2018-10-06T00:30:57.117Z,22.58
2018-10-06T00:32:06.546Z,22.6
2018-10-06T00:33:15.977Z,22.54
2018-10-06T00:34:25.703Z,22.54
2018-10-06T00:35:35.181Z,22.65
2018-10-06T00:36:44.604Z,22.58
2018-10-06T00:37:54.303Z,22.65
2018-10-06T00:39:04.107Z,22.58
2018-10-06T00:40:13.303Z,22.62
2018-10-06T00:41:22.735Z,22.61
2018-10-06T00:42:31.936Z,22.61
2018-10-06T00:43:41.387Z,22.54
2018-10-06T00:44:51.325Z,22.57
2018-10-06T00:46:00.494Z,22.55
2018-10-06T00:47:10.510Z,22.61
2018-10-06T00:48:20.811Z,22.58
2018-10-06T00:49:29.988Z,22.54
2018-10-06T00:50:39.187Z,22.61
2018-10-06T00:51:48.622Z,22.54
2018-10-06T00:52:57.787Z,22.54
2018-10-06T00:54:06.947Z,22.52
2018-10-06T00:55:16.390Z,22.54
2018-10-06T00:56:25.855Z,22.61
2018-10-06T00:57:35.058Z,22.55
2018-10-06T00:58:44.761Z,22.61
2018-10-06T00:59:54.264Z,22.61
2018-10-06T01:01:03.450Z,22.6
2018-10-06T01:02:13.147Z,22.55
2018-10-06T01:03:22.321Z,22.58
2018-10-06T01:04:32.038Z,22.55
2018-10-06T01:05:41.731Z,22.52
2018-10-06T01:06:51.158Z,22.58
2018-10-06T01:08:00.077Z,22.57
2018-10-06T01:09:09.786Z,22.6
2018-10-06T01:10:19.197Z,22.58
2018-10-06T01:11:28.622Z,22.55
2018-10-06T01:12:37.781Z,22.54
2018-10-06T01:13:46.943Z,22.57
2018-10-06T01:14:55.851Z,22.55
2018-10-06T01:16:05.589Z,22.54
2018-10-06T01:17:15.302Z,22.54
2018-10-06T01:18:24.474Z,22.61
2018-10-06T01:19:33.642Z,22.57
2018-10-06T01:20:43.107Z,22.55
2018-10-06T01:21:52.794Z,22.61
2018-10-06T01:23:02.243Z,22.52
2018-10-06T01:24:11.666Z,22.6
2018-10-06T01:25:21.144Z,22.55
2018-10-06T01:26:30.843Z,22.55
2018-10-06T01:27:40.314Z,22.52
2018-10-06T01:28:49.776Z,22.61
2018-10-06T01:29:58.969Z,22.52
2018-10-06T01:31:08.917Z,22.55
2018-10-06T01:32:18.670Z,22.52
2018-10-06T01:33:27.846Z,22.52
2018-10-06T01:34:37.337Z,22.51
2018-10-06T01:35:46.753Z,22.57
2018-10-06T01:36:56.448Z,22.58
2018-10-06T01:38:06.135Z,22.58
2018-10-06T01:39:15.560Z,22.58
2018-10-06T01:40:25.683Z,22.57
2018-10-06T01:41:34.635Z,22.49
2018-10-06T01:42:44.386Z,22.61
2018-10-06T01:43:54.053Z,22.52
2018-10-06T01:45:03.746Z,22.61
2018-10-06T01:46:12.937Z,22.57
2018-10-06T01:47:22.107Z,22.54
2018-10-06T01:48:31.787Z,22.51
2018-10-06T01:49:41.503Z,22.58
2018-10-06T01:50:50.354Z,22.46
2018-10-06T01:52:00.153Z,22.51
2018-10-06T01:53:09.062Z,22.51
2018-10-06T01:54:18.220Z,22.49
2018-10-06T01:55:27.903Z,22.58
2018-10-06T01:56:37.318Z,22.51
2018-10-06T01:57:47.269Z,22.49
2018-10-06T01:58:57.947Z,22.49
2018-10-06T02:00:07.396Z,22.49
2018-10-06T02:01:16.591Z,22.49
2018-10-06T02:02:26.018Z,22.54
2018-10-06T02:03:35.186Z,22.39
2018-10-06T02:04:44.851Z,22.57
2018-10-06T02:05:54.387Z,22.47
2018-10-06T02:07:03.849Z,22.42
2018-10-06T02:08:13.032Z,22.55
2018-10-06T02:09:22.463Z,22.55
2018-10-06T02:10:31.895Z,22.51
2018-10-06T02:11:41.468Z,22.47
2018-10-06T02:12:50.897Z,22.39
2018-10-06T02:14:00.826Z,22.47
2018-10-06T02:15:10.242Z,22.51
2018-10-06T02:16:19.154Z,22.43
2018-10-06T02:17:28.564Z,22.49
2018-10-06T02:18:37.998Z,22.42
2018-10-06T02:19:47.686Z,22.42
2018-10-06T02:20:57.124Z,22.47
2018-10-06T02:22:06.549Z,22.46
2018-10-06T02:23:15.979Z,22.42
2018-10-06T02:24:25.208Z,22.36
2018-10-06T02:25:34.884Z,22.43
2018-10-06T02:26:43.802Z,22.45
2018-10-06T02:27:53.224Z,22.47
2018-10-06T02:29:02.977Z,22.39
2018-10-06T02:30:12.855Z,22.4
2018-10-06T02:31:23.010Z,22.36
2018-10-06T02:32:32.960Z,22.43
2018-10-06T02:33:42.420Z,22.39
2018-10-06T02:34:51.324Z,22.46
2018-10-06T02:36:01.007Z,22.43
2018-10-06T02:37:09.939Z,22.42
2018-10-06T02:38:19.627Z,22.39
2018-10-06T02:39:29.073Z,22.46
2018-10-06T02:40:38.490Z,22.39
2018-10-06T02:41:47.844Z,22.46
2018-10-06T02:42:56.820Z,22.46
2018-10-06T02:44:06.521Z,22.47
2018-10-06T02:45:15.936Z,22.45
2018-10-06T02:46:25.628Z,22.45
2018-10-06T02:47:34.811Z,22.46
2018-10-06T02:48:43.993Z,22.45
2018-10-06T02:49:53.166Z,22.46
2018-10-06T02:51:02.930Z,22.42
2018-10-06T02:52:13.384Z,22.4
2018-10-06T02:53:22.815Z,22.47
2018-10-06T02:54:32.281Z,22.46
2018-10-06T02:55:42.016Z,22.4
2018-10-06T02:56:51.219Z,22.43
2018-10-06T02:58:01.054Z,22.47
2018-10-06T02:59:10.224Z,22.46
2018-10-06T03:00:19.658Z,22.46
2018-10-06T03:01:29.337Z,22.47
2018-10-06T03:02:38.850Z,22.43
2018-10-06T03:03:48.276Z,22.43
2018-10-06T03:04:57.706Z,22.42
2018-10-06T03:06:06.930Z,22.46
2018-10-06T03:07:17.028Z,22.49
2018-10-06T03:08:26.725Z,22.46
2018-10-06T03:09:36.153Z,22.37
2018-10-06T03:10:45.375Z,22.43
2018-10-06T03:11:55.334Z,22.39
2018-10-06T03:13:05.049Z,22.43
2018-10-06T03:14:14.498Z,22.47
2018-10-06T03:15:23.439Z,22.43
2018-10-06T03:16:33.141Z,22.46
2018-10-06T03:17:42.582Z,22.46
2018-10-06T03:18:52.292Z,22.45
2018-10-06T03:20:01.460Z,22.45
2018-10-06T03:21:11.412Z,22.46
2018-10-06T03:22:21.098Z,22.47
2018-10-06T03:23:30.785Z,22.45
2018-10-06T03:24:40.279Z,22.45
2018-10-06T03:25:49.540Z,22.45
2018-10-06T03:26:58.731Z,22.45
2018-10-06T03:28:08.430Z,22.46
2018-10-06T03:29:18.110Z,22.39
2018-10-06T03:30:27.865Z,22.45
2018-10-06T03:31:37.826Z,22.39
2018-10-06T03:32:47.474Z,22.4
2018-10-06T03:33:56.902Z,22.42
2018-10-06T03:35:06.600Z,22.45
2018-10-06T03:36:16.316Z,22.45
2018-10-06T03:37:26.210Z,22.37
2018-10-06T03:38:35.386Z,22.42
2018-10-06T03:39:45.009Z,22.4
2018-10-06T03:40:53.930Z,22.47
2018-10-06T03:42:03.360Z,22.45
2018-10-06T03:43:13.066Z,22.45
2018-10-06T03:44:22.286Z,22.39
2018-10-06T03:45:31.199Z,22.4
2018-10-06T03:46:40.689Z,22.39
2018-10-06T03:47:49.937Z,22.37
2018-10-06T03:48:59.108Z,22.4
2018-10-06T03:50:08.818Z,22.46
2018-10-06T03:51:18.497Z,22.39
2018-10-06T03:52:28.201Z,22.39
2018-10-06T03:53:37.888Z,22.39
2018-10-06T03:54:47.826Z,22.4
2018-10-06T03:55:57.246Z,22.39
2018-10-06T03:57:06.691Z,22.39
2018-10-06T03:58:16.496Z,22.37
2018-10-06T03:59:25.940Z,22.45
2018-10-06T04:00:35.354Z,22.4
2018-10-06T04:01:45.054Z,22.42
2018-10-06T04:02:54.459Z,22.37
2018-10-06T04:04:03.638Z,22.4
2018-10-06T04:05:13.072Z,22.4
2018-10-06T04:06:22.764Z,22.36
2018-10-06T04:07:32.456Z,22.45
2018-10-06T04:08:42.222Z,22.36
2018-10-06T04:09:51.724Z,22.4
2018-10-06T04:11:01.411Z,22.42
2018-10-06T04:12:11.169Z,22.3
2018-10-06T04:13:21.132Z,22.42
2018-10-06T04:14:30.816Z,22.39
2018-10-06T04:15:40.243Z,22.39
2018-10-06T04:16:50.229Z,22.42
2018-10-06T04:17:59.672Z,22.39
2018-10-06T04:19:09.051Z,22.35
2018-10-06T04:20:18.745Z,22.35
2018-10-06T04:21:28.434Z,22.39
2018-10-06T04:22:38.131Z,22.42
2018-10-06T04:23:48.078Z,22.36
2018-10-06T04:24:57.246Z,22.39
2018-10-06T04:26:06.705Z,22.37
2018-10-06T04:27:16.128Z,22.39
2018-10-06T04:28:26.302Z,22.39
2018-10-06T04:29:36.311Z,22.39
2018-10-06T04:30:45.997Z,22.33
2018-10-06T04:31:55.687Z,22.4
2018-10-06T04:33:05.370Z,22.39
2018-10-06T04:34:14.814Z,22.39
2018-10-06T04:35:24.106Z,22.36
2018-10-06T04:36:33.784Z,22.42
2018-10-06T04:37:43.717Z,22.35
2018-10-06T04:38:53.667Z,22.36
2018-10-06T04:40:02.600Z,22.4
2018-10-06T04:41:12.545Z,22.39
2018-10-06T04:42:22.066Z,22.36
2018-10-06T04:43:31.740Z,22.3
2018-10-06T04:44:41.431Z,22.37
2018-10-06T04:45:50.604Z,22.33
2018-10-06T04:47:00.092Z,22.33
2018-10-06T04:48:09.574Z,22.33
2018-10-06T04:49:19.018Z,22.39
2018-10-06T04:50:28.818Z,22.35
2018-10-06T04:51:38.756Z,22.31
2018-10-06T04:52:47.919Z,22.35
2018-10-06T04:53:57.340Z,22.33
2018-10-06T04:55:06.578Z,22.35
2018-10-06T04:56:15.836Z,22.33
2018-10-06T04:57:25.520Z,22.33
2018-10-06T04:58:34.939Z,22.31
2018-10-06T04:59:44.356Z,22.39
2018-10-06T05:00:54.043Z,22.31
2018-10-06T05:02:03.209Z,22.4
2018-10-06T05:03:12.300Z,22.31
2018-10-06T05:04:21.829Z,22.31
2018-10-06T05:05:31.413Z,22.33
2018-10-06T05:06:40.866Z,22.39
2018-10-06T05:07:50.292Z,22.3
2018-10-06T05:08:59.725Z,22.39
2018-10-06T05:10:09.171Z,22.3
2018-10-06T05:11:18.883Z,22.39
2018-10-06T05:12:28.979Z,22.31
2018-10-06T05:13:39.349Z,22.3
2018-10-06T05:14:49.290Z,22.36
2018-10-06T05:15:59.038Z,22.35
2018-10-06T05:17:08.468Z,22.31
2018-10-06T05:18:17.747Z,22.35
2018-10-06T05:19:27.430Z,22.31
2018-10-06T05:20:36.340Z,22.28
2018-10-06T05:21:46.030Z,22.37
2018-10-06T05:22:55.484Z,22.35
2018-10-06T05:24:04.657Z,22.31
2018-10-06T05:25:13.602Z,22.31
2018-10-06T05:26:22.772Z,22.28
2018-10-06T05:27:31.960Z,22.35
2018-10-06T05:28:41.136Z,22.27
2018-10-06T05:29:50.565Z,22.31
2018-10-06T05:30:59.968Z,22.37
2018-10-06T05:32:09.682Z,22.33
2018-10-06T05:33:18.877Z,22.27
2018-10-06T05:34:28.312Z,22.33
2018-10-06T05:35:37.987Z,22.39
2018-10-06T05:36:47.156Z,22.39
2018-10-06T05:37:56.596Z,22.33
2018-10-06T05:39:05.776Z,22.31
2018-10-06T05:40:15.475Z,22.31
2018-10-06T05:41:24.907Z,22.36
2018-10-06T05:42:34.581Z,22.25
2018-10-06T05:43:44.016Z,22.33
2018-10-06T05:44:53.979Z,22.3
2018-10-06T05:46:03.829Z,22.31
2018-10-06T05:47:13.515Z,22.31
2018-10-06T05:48:22.266Z,22.3
2018-10-06T05:49:31.695Z,22.31
2018-10-06T05:50:41.657Z,22.36
2018-10-06T05:51:50.986Z,22.39
2018-10-06T05:53:00.150Z,22.31
2018-10-06T05:54:09.836Z,22.3
2018-10-06T05:55:19.262Z,22.24
2018-10-06T05:56:29.067Z,22.28
2018-10-06T05:57:38.773Z,22.33
2018-10-06T05:58:48.469Z,22.27
2018-10-06T05:59:57.983Z,22.27
2018-10-06T06:01:07.672Z,22.27
2018-10-06T06:02:17.117Z,22.3
2018-10-06T06:03:26.536Z,22.22
2018-10-06T06:04:36.242Z,22.27
2018-10-06T06:05:45.422Z,22.33
2018-10-06T06:06:54.609Z,22.27
2018-10-06T06:08:04.178Z,22.28
2018-10-06T06:09:13.627Z,22.33
2018-10-06T06:10:23.342Z,22.31
2018-10-06T06:11:32.279Z,22.31
2018-10-06T06:12:41.975Z,22.27
2018-10-06T06:13:51.682Z,22.31
2018-10-06T06:15:01.692Z,22.27
2018-10-06T06:16:11.650Z,22.36
2018-10-06T06:17:21.347Z,22.27
2018-10-06T06:18:30.509Z,22.33
2018-10-06T06:19:39.827Z,22.3
2018-10-06T06:20:49.584Z,22.3
2018-10-06T06:21:59.017Z,22.27
2018-10-06T06:23:08.958Z,22.39
2018-10-06T06:24:18.384Z,22.31
2018-10-06T06:25:28.110Z,22.25
2018-10-06T06:26:37.874Z,22.3
2018-10-06T06:27:47.397Z,22.36
2018-10-06T06:28:57.428Z,22.28
2018-10-06T06:30:06.608Z,22.31
2018-10-06T06:31:16.443Z,22.33
2018-10-06T06:32:26.196Z,22.35
2018-10-06T06:33:35.875Z,22.27
2018-10-06T06:34:45.547Z,22.36
2018-10-06T06:35:55.400Z,22.37
2018-10-06T06:37:05.386Z,22.28
2018-10-06T06:38:15.433Z,22.33
2018-10-06T06:39:24.878Z,22.35
2018-10-06T06:40:34.324Z,22.3
2018-10-06T06:41:44.015Z,22.33
2018-10-06T06:42:53.456Z,22.3
2018-10-06T06:44:02.963Z,22.31
2018-10-06T06:45:12.980Z,22.28
2018-10-06T06:46:22.976Z,22.3
2018-10-06T06:47:32.682Z,22.24
2018-10-06T06:48:42.158Z,22.3
2018-10-06T06:49:51.331Z,22.27
2018-10-06T06:51:00.766Z,22.31
2018-10-06T06:52:09.981Z,22.31
2018-10-06T06:53:18.899Z,22.27
2018-10-06T06:54:28.330Z,22.36
2018-10-06T06:55:37.495Z,22.27
2018-10-06T06:56:46.653Z,22.31
2018-10-06T06:57:56.095Z,22.28
2018-10-06T06:59:06.076Z,22.31
2018-10-06T07:00:15.252Z,22.28
2018-10-06T07:01:24.703Z,22.3
2018-10-06T07:02:34.158Z,22.28
2018-10-06T07:03:44.110Z,22.25
2018-10-06T07:04:53.347Z,22.31
2018-10-06T07:06:02.513Z,22.31
2018-10-06T07:07:12.203Z,22.25
2018-10-06T07:08:21.881Z,22.3
2018-10-06T07:09:31.825Z,22.27
2018-10-06T07:10:41.777Z,22.25
2018-10-06T07:11:50.949Z,22.25
2018-10-06T07:13:00.629Z,22.27
2018-10-06T07:14:10.154Z,22.28
2018-10-06T07:15:19.665Z,22.25
2018-10-06T07:16:29.593Z,22.27
2018-10-06T07:17:39.750Z,22.28
2018-10-06T07:18:49.452Z,22.35
2018-10-06T07:19:59.186Z,22.28
2018-10-06T07:21:08.612Z,22.31
2018-10-06T07:22:18.550Z,22.31
2018-10-06T07:23:27.731Z,22.27
2018-10-06T07:24:37.494Z,22.28
2018-10-06T07:25:46.951Z,22.28
2018-10-06T07:26:56.378Z,22.31
2018-10-06T07:28:05.794Z,22.27
2018-10-06T07:29:15.312Z,22.31
2018-10-06T07:30:25.009Z,22.31
2018-10-06T07:31:35.000Z,22.33
2018-10-06T07:32:44.945Z,22.28
2018-10-06T07:33:54.378Z,22.35
2018-10-06T07:35:03.565Z,22.36
2018-10-06T07:36:13.014Z,22.31
2018-10-06T07:37:22.451Z,22.25
2018-10-06T07:38:31.900Z,22.37
2018-10-06T07:39:42.303Z,22.35
2018-10-06T07:40:51.050Z,22.31
2018-10-06T07:42:00.214Z,22.36
2018-10-06T07:43:09.663Z,22.39
2018-10-06T07:44:19.095Z,22.31
2018-10-06T07:45:28.528Z,22.3
2018-10-06T07:46:37.444Z,22.28
2018-10-06T07:47:46.608Z,22.37
2018-10-06T07:48:56.281Z,22.37
2018-10-06T07:50:06.014Z,22.35
2018-10-06T07:51:15.429Z,22.33
2018-10-06T07:52:25.134Z,22.4
2018-10-06T07:53:34.828Z,22.39
2018-10-06T07:54:44.255Z,22.39
2018-10-06T07:55:53.946Z,22.35
2018-10-06T07:57:03.952Z,22.4
2018-10-06T07:58:13.911Z,22.33
2018-10-06T07:59:24.648Z,22.35
2018-10-06T08:00:33.926Z,22.4
2018-10-06T08:01:43.536Z,22.3
2018-10-06T08:02:52.966Z,22.4
2018-10-06T08:04:02.465Z,22.35
2018-10-06T08:05:11.899Z,22.43
2018-10-06T08:06:21.937Z,22.39
2018-10-06T08:07:31.017Z,22.37
2018-10-06T08:08:40.765Z,22.39
2018-10-06T08:09:49.684Z,22.37
2018-10-06T08:10:59.135Z,22.4
2018-10-06T08:12:08.833Z,22.4
2018-10-06T08:13:18.519Z,22.47
2018-10-06T08:14:27.993Z,22.46
2018-10-06T08:15:37.009Z,22.42
2018-10-06T08:16:46.478Z,22.42
2018-10-06T08:17:55.417Z,22.39
2018-10-06T08:19:05.444Z,22.46
2018-10-06T08:20:15.132Z,22.47
2018-10-06T08:21:24.869Z,22.45
2018-10-06T08:22:34.133Z,22.37
2018-10-06T08:23:43.561Z,22.37
2018-10-06T08:24:53.290Z,22.49
2018-10-06T08:26:02.979Z,22.47
2018-10-06T08:27:12.722Z,22.47
2018-10-06T08:28:22.190Z,22.45
2018-10-06T08:29:31.711Z,22.46
2018-10-06T08:30:41.692Z,22.4
2018-10-06T08:31:51.140Z,22.47
2018-10-06T08:33:01.136Z,22.39
2018-10-06T08:34:10.607Z,22.39
2018-10-06T08:35:19.266Z,22.46
2018-10-06T08:36:28.165Z,22.46
2018-10-06T08:37:37.618Z,22.39
2018-10-06T08:38:47.330Z,22.43
2018-10-06T08:39:56.775Z,22.36
2018-10-06T08:41:06.208Z,22.4
2018-10-06T08:42:15.372Z,22.47
2018-10-06T08:43:24.828Z,22.39
2018-10-06T08:44:34.517Z,22.43
2018-10-06T08:45:44.520Z,22.37
2018-10-06T08:46:53.708Z,22.42
2018-10-06T08:48:02.890Z,22.45
2018-10-06T08:49:12.321Z,22.45
2018-10-06T08:50:22.779Z,22.45
2018-10-06T08:51:32.492Z,22.39
2018-10-06T08:52:41.973Z,22.42
2018-10-06T08:53:51.162Z,22.47
2018-10-06T08:55:01.023Z,22.42
2018-10-06T08:56:10.893Z,22.46
2018-10-06T08:57:21.369Z,22.39
2018-10-06T08:58:31.308Z,22.39
2018-10-06T08:59:41.453Z,22.39
2018-10-06T09:00:50.678Z,22.37
2018-10-06T09:02:00.189Z,22.45
2018-10-06T09:03:09.098Z,22.52
2018-10-06T09:04:18.719Z,22.39
2018-10-06T09:05:28.480Z,22.39
2018-10-06T09:06:37.387Z,22.36
2018-10-06T09:07:46.765Z,22.46
2018-10-06T09:08:56.467Z,22.49
2018-10-06T09:10:05.955Z,22.55
2018-10-06T09:11:15.665Z,22.46
2018-10-06T09:12:25.375Z,22.46
2018-10-06T09:13:35.326Z,22.51
2018-10-06T09:14:44.648Z,22.51
2018-10-06T09:15:54.118Z,22.58
2018-10-06T09:17:03.588Z,22.49
2018-10-06T09:18:12.762Z,22.54
2018-10-06T09:19:22.734Z,22.58
2018-10-06T09:20:31.892Z,22.52
2018-10-06T09:21:41.342Z,22.55
2018-10-06T09:22:50.542Z,22.58
2018-10-06T09:24:00.250Z,22.55
2018-10-06T09:25:09.892Z,22.49
2018-10-06T09:26:19.606Z,22.57
2018-10-06T09:27:29.153Z,22.57
2018-10-06T09:28:38.854Z,22.57
2018-10-06T09:29:48.309Z,22.57
2018-10-06T09:30:58.012Z,22.58
2018-10-06T09:32:07.329Z,22.52
2018-10-06T09:33:16.516Z,22.55
2018-10-06T09:34:25.694Z,22.54
2018-10-06T09:35:35.662Z,22.54
2018-10-06T09:36:45.358Z,22.54
2018-10-06T09:37:55.152Z,22.51
2018-10-06T09:39:04.850Z,22.58
2018-10-06T09:40:14.297Z,22.62
2018-10-06T09:41:23.467Z,22.47
2018-10-06T09:42:33.452Z,22.58
2018-10-06T09:43:43.496Z,22.58
2018-10-06T09:44:52.949Z,22.6
2018-10-06T09:46:02.860Z,22.58
2018-10-06T09:47:12.377Z,22.49
2018-10-06T09:48:21.853Z,22.57
2018-10-06T09:49:31.034Z,22.58
2018-10-06T09:50:40.797Z,22.57
2018-10-06T09:51:50.222Z,22.52
2018-10-06T09:52:59.403Z,22.52
2018-10-06T09:54:08.823Z,22.67
2018-10-06T09:55:18.795Z,22.61
2018-10-06T09:56:28.225Z,22.6
2018-10-06T09:57:37.880Z,22.64
2018-10-06T09:58:47.171Z,22.52
2018-10-06T09:59:56.395Z,22.6
2018-10-06T10:01:06.085Z,22.55
2018-10-06T10:02:15.945Z,22.64
2018-10-06T10:03:24.882Z,22.6
2018-10-06T10:04:34.321Z,22.62
2018-10-06T10:05:44.554Z,22.68
2018-10-06T10:06:53.532Z,22.57
2018-10-06T10:08:03.212Z,22.6
2018-10-06T10:09:12.642Z,22.57
2018-10-06T10:10:22.153Z,22.52
2018-10-06T10:11:31.308Z,22.58
2018-10-06T10:12:40.748Z,22.6
2018-10-06T10:13:50.418Z,22.62
2018-10-06T10:14:59.573Z,22.57
2018-10-06T10:16:09.083Z,22.58
2018-10-06T10:17:18.178Z,22.68
2018-10-06T10:18:29.264Z,22.57
2018-10-06T10:19:38.636Z,22.64
2018-10-06T10:20:48.330Z,22.57
2018-10-06T10:21:57.752Z,22.61
2018-10-06T10:23:08.157Z,22.52
2018-10-06T10:24:16.983Z,22.61
2018-10-06T10:25:26.140Z,22.65
2018-10-06T10:26:35.592Z,22.58
2018-10-06T10:27:45.027Z,22.61
2018-10-06T10:28:54.674Z,22.65
2018-10-06T10:30:04.317Z,22.62
2018-10-06T10:31:13.516Z,22.61
2018-10-06T10:32:22.683Z,22.6
2018-10-06T10:33:31.849Z,22.58
2018-10-06T10:34:41.175Z,22.52
2018-10-06T10:35:50.881Z,22.6
2018-10-06T10:36:59.826Z,22.58
2018-10-06T10:38:09.314Z,22.61
2018-10-06T10:39:18.607Z,22.61
2018-10-06T10:40:28.591Z,22.62
2018-10-06T10:41:37.884Z,22.57
2018-10-06T10:42:47.566Z,22.6
2018-10-06T10:43:56.856Z,22.55
2018-10-06T10:45:06.059Z,22.64
2018-10-06T10:46:15.888Z,22.62
2018-10-06T10:47:25.364Z,22.6
2018-10-06T10:48:35.085Z,22.64
2018-10-06T10:49:44.795Z,22.61
2018-10-06T10:50:54.794Z,22.55
2018-10-06T10:52:04.255Z,22.55
2018-10-06T10:53:13.983Z,22.58
2018-10-06T10:54:22.925Z,22.57
2018-10-06T10:55:32.978Z,22.62
2018-10-06T10:56:42.882Z,22.65
2018-10-06T10:57:52.570Z,22.67
2018-10-06T10:59:01.787Z,22.55
2018-10-06T11:00:11.579Z,22.6
2018-10-06T11:01:21.547Z,22.6
2018-10-06T11:02:31.221Z,22.58
2018-10-06T11:03:40.965Z,22.64
2018-10-06T11:04:50.984Z,22.58
2018-10-06T11:06:00.509Z,22.67
2018-10-06T11:07:09.935Z,22.57
2018-10-06T11:08:19.615Z,22.67
2018-10-06T11:09:29.042Z,22.61
2018-10-06T11:10:38.202Z,22.6
2018-10-06T11:11:47.657Z,22.58
2018-10-06T11:12:57.096Z,22.58
2018-10-06T11:14:06.519Z,22.6
2018-10-06T11:15:16.200Z,22.68
2018-10-06T11:16:25.686Z,22.64
2018-10-06T11:17:35.693Z,22.55
2018-10-06T11:18:45.110Z,22.55
2018-10-06T11:19:54.544Z,22.64
2018-10-06T11:21:04.221Z,22.54
2018-10-06T11:22:13.441Z,22.65
2018-10-06T11:23:23.124Z,22.55
2018-10-06T11:24:32.552Z,22.55
2018-10-06T11:25:41.980Z,22.7
2018-10-06T11:26:52.267Z,22.55
2018-10-06T11:28:02.218Z,22.58
2018-10-06T11:29:11.133Z,22.55
2018-10-06T11:30:20.827Z,22.62
2018-10-06T11:31:30.799Z,22.7
2018-10-06T11:32:40.260Z,22.58
2018-10-06T11:33:49.710Z,22.67
2018-10-06T11:34:59.397Z,22.67
2018-10-06T11:36:08.836Z,22.6
2018-10-06T11:37:18.983Z,22.67
2018-10-06T11:38:28.602Z,22.6
2018-10-06T11:39:37.750Z,22.61
2018-10-06T11:40:46.921Z,22.58
2018-10-06T11:41:56.131Z,22.7
2018-10-06T11:43:05.555Z,22.65
2018-10-06T11:44:14.747Z,22.57
2018-10-06T11:45:24.169Z,22.61
2018-10-06T11:46:33.344Z,22.6
2018-10-06T11:47:43.058Z,22.57
2018-10-06T11:48:53.023Z,22.57
2018-10-06T11:50:03.251Z,22.6
2018-10-06T11:51:13.187Z,22.67
2018-10-06T11:52:23.149Z,22.62
2018-10-06T11:53:32.630Z,22.61
2018-10-06T11:54:41.646Z,22.64
2018-10-06T11:55:50.819Z,22.68
2018-10-06T11:57:00.245Z,22.7
2018-10-06T11:58:09.445Z,22.65
2018-10-06T11:59:19.440Z,22.67
2018-10-06T12:00:28.831Z,22.67
2018-10-06T12:01:38.528Z,22.7
2018-10-06T12:02:47.704Z,22.68
2018-10-06T12:03:57.144Z,22.64
2018-10-06T12:05:06.907Z,22.72
2018-10-06T12:06:16.875Z,22.73
2018-10-06T12:07:26.096Z,22.75
2018-10-06T12:08:35.808Z,22.75
2018-10-06T12:09:44.999Z,22.75
2018-10-06T12:10:54.164Z,22.65
2018-10-06T12:12:03.963Z,22.7
2018-10-06T12:13:13.463Z,22.65
2018-10-06T12:14:23.177Z,22.75
2018-10-06T12:15:32.622Z,22.68
2018-10-06T12:16:42.048Z,22.7
2018-10-06T12:17:51.743Z,22.67
2018-10-06T12:19:00.880Z,22.72
2018-10-06T12:20:10.619Z,22.65
2018-10-06T12:21:20.034Z,22.76
2018-10-06T12:22:29.967Z,22.68
2018-10-06T12:23:39.389Z,22.77
2018-10-06T12:24:49.377Z,22.75
2018-10-06T12:25:58.623Z,22.65
2018-10-06T12:27:08.743Z,22.73
2018-10-06T12:28:17.609Z,22.82
2018-10-06T12:29:27.041Z,22.75
2018-10-06T12:30:36.234Z,22.75
2018-10-06T12:31:46.350Z,22.72
2018-10-06T12:32:56.047Z,22.77
2018-10-06T12:34:05.753Z,22.76
2018-10-06T12:35:15.978Z,22.76
2018-10-06T12:36:26.039Z,22.8
2018-10-06T12:37:35.268Z,22.75
2018-10-06T12:38:44.745Z,22.76
2018-10-06T12:39:54.173Z,22.64
2018-10-06T12:41:03.340Z,22.68
2018-10-06T12:42:12.960Z,22.73
2018-10-06T12:43:23.223Z,22.75
2018-10-06T12:44:32.398Z,22.75
2018-10-06T12:45:41.820Z,22.76
2018-10-06T12:46:51.522Z,22.67
2018-10-06T12:48:01.006Z,22.77
2018-10-06T12:49:10.444Z,22.77
2018-10-06T12:50:20.124Z,22.77
2018-10-06T12:51:29.705Z,22.79
2018-10-06T12:52:38.977Z,22.75
2018-10-06T12:53:48.411Z,22.76
2018-10-06T12:54:57.584Z,22.76
2018-10-06T12:56:06.749Z,22.7
2018-10-06T12:57:16.431Z,22.72
2018-10-06T12:58:25.607Z,22.68
2018-10-06T12:59:35.033Z,22.8
2018-10-06T13:00:45.044Z,22.73
2018-10-06T13:01:54.745Z,22.76
2018-10-06T13:03:04.164Z,22.76
2018-10-06T13:04:13.359Z,22.76
2018-10-06T13:05:22.539Z,22.77
2018-10-06T13:06:32.481Z,22.75
2018-10-06T13:07:41.645Z,22.79
2018-10-06T13:08:51.066Z,22.77
2018-10-06T13:10:00.232Z,22.82
2018-10-06T13:11:10.176Z,22.79
2018-10-06T13:12:19.888Z,22.77
2018-10-06T13:13:29.573Z,22.82
2018-10-06T13:14:39.266Z,22.82
2018-10-06T13:15:48.434Z,22.85
2018-10-06T13:16:58.386Z,22.82
2018-10-06T13:18:07.810Z,22.86
2018-10-06T13:19:16.970Z,22.85
2018-10-06T13:20:26.673Z,22.85
2018-10-06T13:21:36.619Z,22.86
2018-10-06T13:22:46.062Z,22.9
2018-10-06T13:23:55.477Z,22.9
2018-10-06T13:25:05.164Z,22.83
2018-10-06T13:26:14.598Z,22.91
2018-10-06T13:27:24.273Z,22.86
2018-10-06T13:28:33.441Z,22.86
2018-10-06T13:29:42.602Z,22.9
2018-10-06T13:30:52.295Z,22.97
2018-10-06T13:32:01.770Z,22.9
2018-10-06T13:33:11.423Z,22.9
2018-10-06T13:34:20.608Z,22.9
2018-10-06T13:35:29.787Z,22.98
2018-10-06T13:36:38.962Z,22.94
2018-10-06T13:37:48.132Z,22.94
2018-10-06T13:38:57.803Z,22.97
2018-10-06T13:40:06.457Z,22.98
2018-10-06T13:41:15.906Z,23.01
2018-10-06T13:42:25.331Z,23.04
2018-10-06T13:43:35.025Z,23.05
2018-10-06T13:44:44.462Z,23.09
2018-10-06T13:45:54.239Z,23.02
2018-10-06T13:47:03.667Z,23.07
2018-10-06T13:48:12.836Z,23.05
2018-10-06T13:49:21.994Z,23.04
2018-10-06T13:50:32.229Z,23.01
2018-10-06T13:51:41.658Z,23.1
2018-10-06T13:52:50.561Z,23.04
2018-10-06T13:54:00.526Z,23.01
2018-10-06T13:55:09.439Z,23.05
2018-10-06T13:56:19.389Z,23.01
2018-10-06T13:57:28.943Z,23.1
2018-10-06T13:58:38.861Z,23.12
2018-10-06T13:59:48.742Z,23.13
2018-10-06T14:00:58.156Z,23.13
2018-10-06T14:02:07.593Z,23.05
2018-10-06T14:03:17.561Z,23.1
2018-10-06T14:04:27.289Z,23.01
2018-10-06T14:05:36.796Z,23.09
2018-10-06T14:06:46.492Z,23.04
2018-10-06T14:07:55.674Z,23.01
2018-10-06T14:09:04.849Z,23.04
2018-10-06T14:10:14.014Z,23.05
2018-10-06T14:11:23.436Z,23.05
2018-10-06T14:12:32.867Z,23.04
2018-10-06T14:13:42.559Z,23.05
2018-10-06T14:14:52.327Z,23.1
2018-10-06T14:16:01.766Z,23.01
2018-10-06T14:17:10.931Z,23
2018-10-06T14:18:19.844Z,23.01
2018-10-06T14:19:29.039Z,23.04
2018-10-06T14:20:38.459Z,22.98
2018-10-06T14:21:48.147Z,23.04
2018-10-06T14:22:57.313Z,23.04
2018-10-06T14:24:06.532Z,23.04
2018-10-06T14:25:15.963Z,22.98
2018-10-06T14:26:25.495Z,23
2018-10-06T14:27:35.256Z,23
2018-10-06T14:28:44.701Z,22.97
2018-10-06T14:29:54.411Z,22.98
2018-10-06T14:31:03.841Z,22.94
2018-10-06T14:32:13.526Z,23.01
2018-10-06T14:33:22.956Z,23.02
2018-10-06T14:34:32.127Z,23
2018-10-06T14:35:41.829Z,23
2018-10-06T14:36:51.306Z,22.95
2018-10-06T14:38:01.003Z,22.91
2018-10-06T14:39:10.186Z,22.98
2018-10-06T14:40:19.367Z,22.92
2018-10-06T14:41:28.541Z,22.94
2018-10-06T14:42:37.983Z,22.98
2018-10-06T14:43:47.442Z,22.92
2018-10-06T14:44:56.616Z,22.95
2018-10-06T14:46:06.044Z,22.95
2018-10-06T14:47:15.476Z,22.97
2018-10-06T14:48:25.309Z,22.97
2018-10-06T14:49:35.002Z,22.9
2018-10-06T14:50:44.448Z,22.91
2018-10-06T14:51:54.382Z,22.94
2018-10-06T14:53:03.836Z,23.02
2018-10-06T14:54:13.268Z,23
2018-10-06T14:55:23.233Z,23.04
2018-10-06T14:56:32.659Z,23.01
2018-10-06T14:57:41.861Z,23.04
2018-10-06T14:58:51.052Z,23.02
2018-10-06T15:00:00.502Z,23